地図

経路データ

SID SEASON NUMBER BASIN SUBBASIN NAME ISO_TIME NATURE LAT LON WMO_WIND WMO_PRES WMO_AGENCY TRACK_TYPE DIST2LAND LANDFALL IFLAG USA_AGENCY USA_ATCF_ID USA_LAT USA_LON USA_RECORD USA_STATUS USA_WIND USA_PRES USA_SSHS USA_R34_NE USA_R34_SE USA_R34_SW USA_R34_NW USA_R50_NE USA_R50_SE USA_R50_SW USA_R50_NW USA_R64_NE USA_R64_SE USA_R64_SW USA_R64_NW USA_POCI USA_ROCI USA_RMW USA_EYE TOKYO_LAT TOKYO_LON TOKYO_GRADE TOKYO_WIND TOKYO_PRES TOKYO_R50_DIR TOKYO_R50_LONG TOKYO_R50_SHORT TOKYO_R30_DIR TOKYO_R30_LONG TOKYO_R30_SHORT TOKYO_LAND CMA_LAT CMA_LON CMA_CAT CMA_WIND CMA_PRES HKO_LAT HKO_LON HKO_CAT HKO_WIND HKO_PRES NEWDELHI_LAT NEWDELHI_LON NEWDELHI_GRADE NEWDELHI_WIND NEWDELHI_PRES NEWDELHI_CI NEWDELHI_DP NEWDELHI_POCI REUNION_LAT REUNION_LON REUNION_TYPE REUNION_WIND REUNION_PRES REUNION_TNUM REUNION_CI REUNION_RMW REUNION_R34_NE REUNION_R34_SE REUNION_R34_SW REUNION_R34_NW REUNION_R50_NE REUNION_R50_SE REUNION_R50_SW REUNION_R50_NW REUNION_R64_NE REUNION_R64_SE REUNION_R64_SW REUNION_R64_NW BOM_LAT BOM_LON BOM_TYPE BOM_WIND BOM_PRES BOM_TNUM BOM_CI BOM_RMW BOM_R34_NE BOM_R34_SE BOM_R34_SW BOM_R34_NW BOM_R50_NE BOM_R50_SE BOM_R50_SW BOM_R50_NW BOM_R64_NE BOM_R64_SE BOM_R64_SW BOM_R64_NW BOM_ROCI BOM_POCI BOM_EYE BOM_POS_METHOD BOM_PRES_METHOD NADI_LAT NADI_LON NADI_CAT NADI_WIND NADI_PRES WELLINGTON_LAT WELLINGTON_LON WELLINGTON_WIND WELLINGTON_PRES DS824_LAT DS824_LON DS824_STAGE DS824_WIND DS824_PRES TD9636_LAT TD9636_LON TD9636_STAGE TD9636_WIND TD9636_PRES TD9635_LAT TD9635_LON TD9635_WIND TD9635_PRES TD9635_ROCI NEUMANN_LAT NEUMANN_LON NEUMANN_CLASS NEUMANN_WIND NEUMANN_PRES MLC_LAT MLC_LON MLC_CLASS MLC_WIND MLC_PRES USA_GUST BOM_GUST BOM_GUST_PER REUNION_GUST REUNION_GUST_PER USA_SEAHGT USA_SEARAD_NE USA_SEARAD_SE USA_SEARAD_SW USA_SEARAD_NW STORM_SPEED STORM_DIR
1959214N16219 1959 55 EP CP DOT 1959-08-01 12:00:00 NR 15.8000 -140.900 main 1529 1509 __________O___ -1 15.8000 -140.900 4 3 271
1959214N16219 1959 55 EP CP DOT 1959-08-01 15:00:00 NR 15.8026 -141.067 main 1509 1498 __________P___ -1 15.8026 -141.067 4 3 260
1959214N16219 1959 55 EP CP DOT 1959-08-01 18:00:00 TS 15.7447 -141.229 60 hurdat_epa main 1502 1468 O________OP___ hurdat_epa CP011959 15.7000 -141.200 TS 60 0 15.7000 -141.200 TC 60 15.8042 -141.268 4 4 267
1959214N16219 1959 55 EP CP DOT 1959-08-01 21:00:00 TS 15.7812 -141.478 main 1468 1438 P________PP___ CP011959 15.7699 -141.450 TS 75 1 15.7699 -141.450 TC 75 15.8038 -141.534 4 6 276
1959214N16219 1959 55 EP CP DOT 1959-08-02 00:00:00 TS 15.8000 -141.825 90 hurdat_epa main 1438 1387 O________OO___ hurdat_epa CP011959 15.8000 -141.800 HU 90 2 15.8000 -141.800 TC 90 15.8000 -141.900 4 8 269
1959214N16219 1959 55 EP CP DOT 1959-08-02 03:00:00 TS 15.7703 -142.327 main 1387 1330 P________PP___ CP011959 15.7651 -142.313 HU 95 2 15.7651 -142.313 TC 95 15.7911 -142.384 4 10 265
1959214N16219 1959 55 EP CP DOT 1959-08-02 06:00:00 TS 15.7147 -142.910 100 hurdat_epa main 1330 1280 O________OP___ hurdat_epa CP011959 15.7000 -142.900 HU 100 3 15.7000 -142.900 TC 100 15.7736 -142.947 4 11 265
1959214N16219 1959 55 EP CP DOT 1959-08-02 09:00:00 TS 15.6688 -143.479 main 1270 1225 P________PP___ CP011959 15.6500 -143.465 HU 105 3 15.6500 -143.465 TC 105 15.7442 -143.537 4 11 265
1959214N16219 1959 55 EP CP DOT 1959-08-02 12:00:00 TS 15.6200 -144.020 110 hurdat_epa main 1225 1175 O________OO___ hurdat_epa CP011959 15.6000 -144.000 HU 110 3 15.6000 -144.000 TC 110 15.7000 -144.100 4 10 264
1959214N16219 1959 55 EP CP DOT 1959-08-02 15:00:00 TS 15.5721 -144.494 main 1175 1141 P________PP___ CP011959 15.5574 -144.472 HU 115 4 15.5574 -144.472 TC 115 15.6309 -144.581 4 9 263
1959214N16219 1959 55 EP CP DOT 1959-08-02 18:00:00 TS 15.5099 -144.925 120 hurdat_epa main 1141 1107 O________OP___ hurdat_epa CP011959 15.5000 -144.900 HU 120 4 15.5000 -144.900 TC 120 15.5496 -145.025 4 8 258
1959214N16219 1959 55 EP CP DOT 1959-08-02 21:00:00 TS 15.4075 -145.320 main 1107 1073 P________PP___ CP011959 15.3923 -145.293 HU 125 4 15.3923 -145.293 TC 125 15.4685 -145.431 4 8 256
1959214N16219 1959 55 EP CP DOT 1959-08-03 00:00:00 TS 15.3200 -145.720 130 952 hurdat_epa main 1073 1035 O________OO___ hurdat_epa CP011959 15.3000 -145.700 HU 130 952 4 15.3000 -145.700 TC 130 952 15.4000 -145.800 4 8 262
1959214N16219 1959 55 EP CP DOT 1959-08-03 03:00:00 TS 15.2881 -146.157 main 1026 988 P________PP___ CP011959 15.2774 -146.177 HU 125 4 15.2774 -146.177 TC 125 15.3310 -146.075 4 9 268
1959214N16219 1959 55 EP CP DOT 1959-08-03 06:00:00 TS 15.2961 -146.625 120 hurdat_epa main 988 942 O________OP___ hurdat_epa CP011959 15.3000 -146.700 HU 120 4 15.3000 -146.700 TC 120 15.2807 -146.326 4 9 272
1959214N16219 1959 55 EP CP DOT 1959-08-03 09:00:00 TS 15.3211 -147.135 main 942 890 P________PP___ CP011959 15.3351 -147.265 HU 120 4 15.3351 -147.265 TC 120 15.2651 -146.613 4 10 275
1959214N16219 1959 55 EP CP DOT 1959-08-03 12:00:00 TS 15.3800 -147.640 120 hurdat_epa main 890 839 O________OO___ hurdat_epa CP011959 15.4000 -147.800 HU 120 4 15.4000 -147.800 TC 120 15.3000 -147.000 4 9 279
1959214N16219 1959 55 EP CP DOT 1959-08-03 15:00:00 TS 15.4697 -148.099 main 839 797 P________PP___ CP011959 15.4848 -148.223 HU 120 4 15.4848 -148.223 TC 120 15.4092 -147.603 4 9 284
1959214N16219 1959 55 EP CP DOT 1959-08-03 18:00:00 TS 15.5929 -148.541 120 hurdat_epa main 797 747 O________OP___ hurdat_epa CP011959 15.6000 -148.600 HU 120 4 15.6000 -148.600 TC 120 15.5645 -148.304 4 9 287
1959214N16219 1959 55 EP CP DOT 1959-08-03 21:00:00 TS 15.7353 -148.994 main 747 699 P________PP___ CP011959 15.7348 -148.985 HU 120 4 15.7348 -148.985 TC 120 15.7373 -149.028 4 9 289
1959214N16219 1959 55 EP CP DOT 1959-08-04 00:00:00 TS 15.9000 -149.460 120 hurdat_epa main 690 643 O________OO___ hurdat_epa CP011959 15.9000 -149.400 HU 120 4 15.9000 -149.400 TC 120 15.9000 -149.700 4 10 291
1959214N16219 1959 55 EP CP DOT 1959-08-04 03:00:00 TS 16.0800 -149.938 main 643 594 P________PP___ CP011959 16.0999 -149.877 HU 120 4 16.0999 -149.877 TC 120 16.0005 -150.179 4 10 291
1959214N16219 1959 55 EP CP DOT 1959-08-04 06:00:00 TS 16.2580 -150.440 120 hurdat_epa main 587 538 O________OP___ hurdat_epa CP011959 16.3000 -150.400 HU 120 4 16.3000 -150.400 TC 120 16.0901 -150.601 4 10 289
1959214N16219 1959 55 EP CP DOT 1959-08-04 09:00:00 TS 16.4149 -150.959 main 530 484 P________PP___ CP011959 16.4724 -150.943 HU 120 4 16.4724 -150.943 TC 120 16.1848 -151.023 4 11 286
1959214N16219 1959 55 EP CP DOT 1959-08-04 12:00:00 TS 16.5400 -151.500 120 hurdat_epa main 484 438 O________OO___ hurdat_epa CP011959 16.6000 -151.500 HU 120 4 16.6000 -151.500 TC 120 16.3000 -151.500 4 11 281
1959214N16219 1959 55 EP CP DOT 1959-08-04 15:00:00 TS 16.6131 -152.058 main 430 386 P________PP___ CP011959 16.6497 -152.035 HU 120 4 16.6497 -152.035 TC 120 16.4667 -152.150 4 11 278
1959214N16219 1959 55 EP CP DOT 1959-08-04 18:00:00 TS 16.6903 -152.651 120 hurdat_epa main 379 332 O________OP___ hurdat_epa CP011959 16.7000 -152.600 HU 120 4 16.7000 -152.600 TC 120 16.6516 -152.856 4 12 281
1959214N16219 1959 55 EP CP DOT 1959-08-04 21:00:00 TS 16.8471 -153.312 main 332 282 P________PP___ CP011959 16.8501 -153.250 HU 120 4 16.8501 -153.250 TC 120 16.8355 -153.560 4 13 284
1959214N16219 1959 55 EP CP DOT 1959-08-05 00:00:00 TS 17.0000 -153.960 120 hurdat_epa main 278 238 O________OO___ hurdat_epa CP011959 17.0000 -153.900 HU 120 4 17.0000 -153.900 TC 120 17.0000 -154.200 4 12 281
1959214N16219 1959 55 EP CP DOT 1959-08-05 03:00:00 TS 17.0674 -154.516 main 238 214 P________PP___ CP011959 17.0573 -154.473 HU 120 4 17.0573 -154.473 TC 120 17.1080 -154.690 4 10 277
1959214N16219 1959 55 EP CP DOT 1959-08-05 06:00:00 TS 17.1197 -155.022 120 hurdat_epa main 214 191 O________OP___ hurdat_epa CP011959 17.1000 -155.000 HU 120 4 17.1000 -155.000 TC 120 17.1983 -155.111 4 10 278
1959214N16219 1959 55 EP CP DOT 1959-08-05 09:00:00 TS 17.1998 -155.518 main 191 179 P________PP___ CP011959 17.1774 -155.523 HU 117 4 17.1774 -155.523 TC 117 17.2895 -155.502 4 9 282
1959214N16219 1959 55 EP CP DOT 1959-08-05 12:00:00 TS 17.3200 -155.980 115 hurdat_epa main 181 168 O________OO___ hurdat_epa CP011959 17.3000 -156.000 HU 115 4 17.3000 -156.000 TC 115 17.4000 -155.900 4 9 289
1959214N16219 1959 55 EP CP DOT 1959-08-05 15:00:00 TS 17.4845 -156.409 main 173 173 P________PP___ CP011959 17.4773 -156.408 HU 112 3 17.4773 -156.408 TC 112 17.5134 -156.413 4 9 295
1959214N16219 1959 55 EP CP DOT 1959-08-05 18:00:00 TS 17.6907 -156.827 110 hurdat_epa main 177 177 O________OP___ hurdat_epa CP011959 17.7000 -156.800 HU 110 3 17.7000 -156.800 TC 110 17.6533 -156.932 4 10 297
1959214N16219 1959 55 EP CP DOT 1959-08-05 21:00:00 TS 17.9224 -157.300 main 199 199 P________PP___ CP011959 17.9426 -157.272 HU 110 3 17.9426 -157.272 TC 110 17.8415 -157.410 4 10 300
1959214N16219 1959 55 EP CP DOT 1959-08-06 00:00:00 TS 18.1800 -157.720 110 hurdat_epa main 214 214 O________OO___ hurdat_epa CP011959 18.2000 -157.700 HU 110 3 18.2000 -157.700 TC 110 18.1000 -157.800 4 8 307
1959214N16219 1959 55 EP CP DOT 1959-08-06 03:00:00 TS 18.4348 -158.004 main 234 231 P________PP___ CP011959 18.4274 -157.995 HU 105 3 18.4274 -157.995 TC 105 18.4646 -158.040 4 7 321
1959214N16219 1959 55 EP CP DOT 1959-08-06 06:00:00 TS 18.7393 -158.198 100 hurdat_epa main 246 240 O________OP___ hurdat_epa CP011959 18.7000 -158.200 HU 100 3 18.7000 -158.200 TC 100 18.8966 -158.191 4 8 335
1959214N16219 1959 55 EP CP DOT 1959-08-06 09:00:00 TS 19.1330 -158.351 main 248 205 P________PP___ CP011959 19.0774 -158.365 HU 100 3 19.0774 -158.365 TC 100 19.3554 -158.296 4 9 342
1959214N16219 1959 55 EP CP DOT 1959-08-06 12:00:00 TS 19.5600 -158.480 100 hurdat_epa main 194 164 O________OO___ hurdat_epa CP011959 19.5000 -158.500 HU 100 3 19.5000 -158.500 TC 100 19.8000 -158.400 4 9 342
1959214N16219 1959 55 EP CP DOT 1959-08-06 15:00:00 TS 19.9587 -158.638 main 154 133 P________PP___ CP011959 19.9075 -158.658 HU 100 3 19.9075 -158.658 TC 100 20.1633 -158.560 4 8 340
1959214N16219 1959 55 EP CP DOT 1959-08-06 18:00:00 TS 20.3415 -158.786 100 hurdat_epa main 133 106 O________OP___ hurdat_epa CP011959 20.3000 -158.800 HU 100 3 20.3000 -158.800 TC 100 20.5074 -158.728 4 8 342
1959214N16219 1959 55 EP CP DOT 1959-08-06 21:00:00 TS 20.6895 -158.890 main 106 94 P________PP___ CP011959 20.6499 -158.885 HU 90 2 20.6499 -158.885 TC 90 20.8477 -158.907 4 7 342
1959214N16219 1959 55 EP CP DOT 1959-08-07 00:00:00 TS 21.0400 -159.020 80 hurdat_epa main 99 56 O________OO___ hurdat_epa CP011959 21.0000 -159.000 HU 80 1 21.0000 -159.000 TC 80 21.2000 -159.100 4 8 335
1959214N16219 1959 55 EP CP DOT 1959-08-07 03:00:00 TS 21.4514 -159.274 main 45 15 P________PP___ CP011959 21.4077 -159.265 HU 77 1 21.4077 -159.265 TC 77 21.6262 -159.310 4 9 331
1959214N16219 1959 55 EP CP DOT 1959-08-07 06:00:00 TS 21.8520 -159.507 75 hurdat_epa main 10 0 O________OP___ hurdat_epa CP011959 21.8000 -159.500 HU 75 1 21.8000 -159.500 TC 75 22.0600 -159.534 4 8 343
1959214N16219 1959 55 EP CP DOT 1959-08-07 09:00:00 TS 22.1904 -159.512 main 11 11 P________PP___ CP011959 22.1221 -159.448 HU 60 0 22.1221 -159.448 TC 60 22.4637 -159.766 4 6 352
1959214N16219 1959 55 EP CP DOT 1959-08-07 12:00:00 TS 22.4800 -159.600 45 hurdat_epa main 44 44 O________OO___ hurdat_epa CP011959 22.4000 -159.500 TS 45 0 22.4000 -159.500 TC 45 22.8000 -160.000 4 7 319
1959214N16219 1959 55 EP CP DOT 1959-08-07 15:00:00 TS 22.7553 -160.040 main 84 84 P________PP___ CP011959 22.6877 -159.994 TS 45 0 22.6877 -159.994 TC 45 23.0258 -160.222 4 11 296
1959214N16219 1959 55 EP CP DOT 1959-08-07 18:00:00 TS 22.9565 -160.649 45 hurdat_epa main 136 136 O________OP___ hurdat_epa CP011959 22.9000 -160.700 TS 45 0 22.9000 -160.700 TC 45 23.1823 -160.443 4 12 284
1959214N16219 1959 55 EP CP DOT 1959-08-07 21:00:00 TS 23.0378 -161.272 main 190 190 P________PP___ CP011959 22.9728 -161.423 TS 45 0 22.9728 -161.423 TC 45 23.2976 -160.668 4 11 278
1959214N16219 1959 55 EP CP DOT 1959-08-08 00:00:00 TS 23.1000 -161.800 45 hurdat_epa main 239 239 O________OO___ hurdat_epa CP011959 23.0000 -162.100 TS 45 0 23.0000 -162.100 TC 45 23.4000 -160.900 4 8 283
1959214N16219 1959 55 EP CP DOT 1959-08-08 03:00:00 TS 23.2239 -162.117 main 271 271 P________PP___ CP011959 23.0798 -162.605 TS 35 0 23.0798 -162.605 TC 35 23.5121 -161.141 4 6 302
1959214N16219 1959 55 EP CP DOT 1959-08-08 06:00:00 TS 23.3866 -162.310 25 hurdat_epa main 300 271 O________OP___ hurdat_epa CP011959 23.2000 -163.000 TD 25 -1 23.2000 -163.000 TC 25 23.6354 -161.389 4 7 39
1959214N16219 1959 55 EP CP DOT 1959-08-08 09:00:00 NR 23.7660 -161.643 main 271 271 __________P___ CP011959 TD -1 TC 23.7660 -161.643 4 6 36
1959214N16219 1959 55 EP CP DOT 1959-08-08 12:00:00 NR 23.9000 -161.900 main 301 __________O___ -1 23.9000 -161.900 4 5 300

IBTrACS Databaseについて

本データベースは、米国NOAAが公開する1842年以降の世界の熱帯低気圧のベストトラックデータアーカイブInternational Best Track Archive for Climate Stewardship (IBTrACS)を、ウェブで閲覧しやすい形式に変換したものです。

最終更新日:2021-11-26